sensor_id;sensor_type;location;lat;lon;timestamp;P1;durP1;ratioP1;P2;durP2;ratioP2
49948;SDS011;35840;45.982;8.890;2022-11-15T00:01:30;6.32;;;3.40;;
49948;SDS011;35840;45.982;8.890;2022-11-15T00:04:15;4.33;;;3.60;;
49948;SDS011;35840;45.982;8.890;2022-11-15T00:07:00;5.38;;;3.92;;
49948;SDS011;35840;45.982;8.890;2022-11-15T00:09:46;8.10;;;4.32;;
49948;SDS011;35840;45.982;8.890;2022-11-15T00:12:31;5.73;;;3.60;;
49948;SDS011;35840;45.982;8.890;2022-11-15T00:15:16;4.23;;;3.10;;
49948;SDS011;35840;45.982;8.890;2022-11-15T00:18:02;5.93;;;4.07;;
49948;SDS011;35840;45.982;8.890;2022-11-15T00:20:48;8.07;;;5.07;;
49948;SDS011;35840;45.982;8.890;2022-11-15T00:23:33;10.73;;;5.33;;
49948;SDS011;35840;45.982;8.890;2022-11-15T00:26:19;6.60;;;4.97;;
49948;SDS011;35840;45.982;8.890;2022-11-15T00:29:04;8.00;;;5.20;;
49948;SDS011;35840;45.982;8.890;2022-11-15T00:31:50;7.93;;;5.05;;
49948;SDS011;35840;45.982;8.890;2022-11-15T00:34:35;6.93;;;4.77;;
49948;SDS011;35840;45.982;8.890;2022-11-15T00:37:21;6.80;;;4.70;;
49948;SDS011;35840;45.982;8.890;2022-11-15T00:40:06;5.97;;;4.07;;
49948;SDS011;35840;45.982;8.890;2022-11-15T00:42:52;6.15;;;4.43;;
49948;SDS011;35840;45.982;8.890;2022-11-15T00:45:37;7.85;;;5.22;;
49948;SDS011;35840;45.982;8.890;2022-11-15T00:48:23;12.77;;;7.70;;
49948;SDS011;35840;45.982;8.890;2022-11-15T00:51:08;16.83;;;8.68;;
49948;SDS011;35840;45.982;8.890;2022-11-15T00:53:54;15.90;;;9.50;;
49948;SDS011;35840;45.982;8.890;2022-11-15T00:56:39;10.93;;;7.00;;
49948;SDS011;35840;45.982;8.890;2022-11-15T00:59:24;15.13;;;7.78;;
49948;SDS011;35840;45.982;8.890;2022-11-15T01:02:09;11.65;;;6.25;;
49948;SDS011;35840;45.982;8.890;2022-11-15T01:04:55;7.03;;;4.63;;
49948;SDS011;35840;45.982;8.890;2022-11-15T01:07:40;8.63;;;5.13;;
49948;SDS011;35840;45.982;8.890;2022-11-15T01:10:25;10.68;;;6.95;;
49948;SDS011;35840;45.982;8.890;2022-11-15T01:13:10;10.38;;;7.25;;
49948;SDS011;35840;45.982;8.890;2022-11-15T01:15:56;15.98;;;7.47;;
49948;SDS011;35840;45.982;8.890;2022-11-15T01:18:41;11.40;;;7.72;;
49948;SDS011;35840;45.982;8.890;2022-11-15T01:21:27;15.18;;;7.72;;
49948;SDS011;35840;45.982;8.890;2022-11-15T01:24:13;13.90;;;7.33;;
49948;SDS011;35840;45.982;8.890;2022-11-15T01:26:58;13.70;;;7.70;;
49948;SDS011;35840;45.982;8.890;2022-11-15T01:29:44;15.25;;;8.07;;
49948;SDS011;35840;45.982;8.890;2022-11-15T01:32:29;11.60;;;7.68;;
49948;SDS011;35840;45.982;8.890;2022-11-15T01:35:14;11.85;;;7.50;;
49948;SDS011;35840;45.982;8.890;2022-11-15T01:38:00;14.13;;;7.55;;
49948;SDS011;35840;45.982;8.890;2022-11-15T01:40:45;17.30;;;8.43;;
49948;SDS011;35840;45.982;8.890;2022-11-15T01:43:34;15.03;;;8.20;;
49948;SDS011;35840;45.982;8.890;2022-11-15T01:46:28;14.75;;;7.65;;
49948;SDS011;35840;45.982;8.890;2022-11-15T01:49:18;11.02;;;7.32;;
49948;SDS011;35840;45.982;8.890;2022-11-15T01:52:09;12.40;;;7.40;;
49948;SDS011;35840;45.982;8.890;2022-11-15T01:57:57;12.70;;;7.88;;
49948;SDS011;35840;45.982;8.890;2022-11-15T02:00:44;13.77;;;8.63;;
49948;SDS011;35840;45.982;8.890;2022-11-15T02:03:33;10.95;;;7.38;;
49948;SDS011;35840;45.982;8.890;2022-11-15T02:06:26;21.80;;;8.43;;
49948;SDS011;35840;45.982;8.890;2022-11-15T02:09:11;10.30;;;6.70;;
49948;SDS011;35840;45.982;8.890;2022-11-15T02:11:57;12.05;;;7.35;;
49948;SDS011;35840;45.982;8.890;2022-11-15T02:14:45;12.50;;;7.25;;
49948;SDS011;35840;45.982;8.890;2022-11-15T02:33:36;10.30;;;7.05;;
49948;SDS011;35840;45.982;8.890;2022-11-15T02:36:32;9.45;;;6.18;;
49948;SDS011;35840;45.982;8.890;2022-11-15T02:39:31;10.25;;;6.60;;
49948;SDS011;35840;45.982;8.890;2022-11-15T02:42:26;10.07;;;6.55;;
49948;SDS011;35840;45.982;8.890;2022-11-15T02:45:36;10.20;;;6.38;;
49948;SDS011;35840;45.982;8.890;2022-11-15T02:48:26;7.90;;;5.00;;
49948;SDS011;35840;45.982;8.890;2022-11-15T02:51:11;9.18;;;5.60;;
49948;SDS011;35840;45.982;8.890;2022-11-15T02:53:58;9.05;;;6.43;;
49948;SDS011;35840;45.982;8.890;2022-11-15T02:56:43;11.85;;;7.07;;
49948;SDS011;35840;45.982;8.890;2022-11-15T03:05:44;10.38;;;6.28;;
49948;SDS011;35840;45.982;8.890;2022-11-15T03:11:54;14.02;;;7.07;;
49948;SDS011;35840;45.982;8.890;2022-11-15T03:17:41;8.48;;;5.65;;
49948;SDS011;35840;45.982;8.890;2022-11-15T03:20:33;8.23;;;5.82;;
49948;SDS011;35840;45.982;8.890;2022-11-15T03:23:20;8.75;;;5.25;;
49948;SDS011;35840;45.982;8.890;2022-11-15T03:26:10;7.85;;;4.40;;
49948;SDS011;35840;45.982;8.890;2022-11-15T03:29:00;6.47;;;4.65;;
49948;SDS011;35840;45.982;8.890;2022-11-15T03:31:51;7.22;;;4.88;;
49948;SDS011;35840;45.982;8.890;2022-11-15T03:41:00;5.95;;;4.13;;
49948;SDS011;35840;45.982;8.890;2022-11-15T03:50:19;5.85;;;3.65;;
49948;SDS011;35840;45.982;8.890;2022-11-15T03:53:06;3.97;;;2.83;;
49948;SDS011;35840;45.982;8.890;2022-11-15T03:55:52;3.17;;;2.78;;
49948;SDS011;35840;45.982;8.890;2022-11-15T03:58:38;10.00;;;3.90;;
49948;SDS011;35840;45.982;8.890;2022-11-15T04:01:23;4.43;;;3.13;;
49948;SDS011;35840;45.982;8.890;2022-11-15T04:04:08;6.22;;;2.95;;
49948;SDS011;35840;45.982;8.890;2022-11-15T04:06:54;4.47;;;2.70;;
49948;SDS011;35840;45.982;8.890;2022-11-15T04:09:39;4.40;;;3.90;;
49948;SDS011;35840;45.982;8.890;2022-11-15T04:12:44;7.68;;;6.00;;
49948;SDS011;35840;45.982;8.890;2022-11-15T04:15:32;4.07;;;3.65;;
49948;SDS011;35840;45.982;8.890;2022-11-15T04:18:17;4.38;;;2.95;;
49948;SDS011;35840;45.982;8.890;2022-11-15T04:21:03;3.30;;;2.60;;
49948;SDS011;35840;45.982;8.890;2022-11-15T04:24:06;3.50;;;2.60;;
49948;SDS011;35840;45.982;8.890;2022-11-15T04:26:58;3.47;;;2.53;;
49948;SDS011;35840;45.982;8.890;2022-11-15T04:29:43;4.63;;;3.05;;
49948;SDS011;35840;45.982;8.890;2022-11-15T04:32:28;4.77;;;2.43;;
49948;SDS011;35840;45.982;8.890;2022-11-15T04:35:14;6.47;;;3.03;;
49948;SDS011;35840;45.982;8.890;2022-11-15T04:37:59;4.13;;;2.90;;
49948;SDS011;35840;45.982;8.890;2022-11-15T04:40:46;7.13;;;3.05;;
49948;SDS011;35840;45.982;8.890;2022-11-15T04:43:31;4.43;;;2.70;;
49948;SDS011;35840;45.982;8.890;2022-11-15T04:46:17;5.85;;;2.75;;
49948;SDS011;35840;45.982;8.890;2022-11-15T04:49:02;3.40;;;2.70;;
49948;SDS011;35840;45.982;8.890;2022-11-15T04:51:47;5.68;;;2.80;;
49948;SDS011;35840;45.982;8.890;2022-11-15T04:54:33;5.22;;;2.80;;
49948;SDS011;35840;45.982;8.890;2022-11-15T04:57:18;5.30;;;3.53;;
49948;SDS011;35840;45.982;8.890;2022-11-15T05:00:04;7.88;;;2.97;;
49948;SDS011;35840;45.982;8.890;2022-11-15T05:02:51;5.53;;;3.88;;
49948;SDS011;35840;45.982;8.890;2022-11-15T05:05:56;3.10;;;2.67;;
49948;SDS011;35840;45.982;8.890;2022-11-15T05:08:42;5.63;;;3.10;;
49948;SDS011;35840;45.982;8.890;2022-11-15T05:11:28;3.57;;;3.03;;
49948;SDS011;35840;45.982;8.890;2022-11-15T05:14:13;4.00;;;2.85;;
49948;SDS011;35840;45.982;8.890;2022-11-15T05:16:59;4.13;;;3.40;;
49948;SDS011;35840;45.982;8.890;2022-11-15T05:19:45;4.97;;;3.40;;
49948;SDS011;35840;45.982;8.890;2022-11-15T05:22:30;3.47;;;3.03;;
49948;SDS011;35840;45.982;8.890;2022-11-15T05:25:15;5.07;;;3.60;;
49948;SDS011;35840;45.982;8.890;2022-11-15T05:28:00;5.18;;;3.58;;
49948;SDS011;35840;45.982;8.890;2022-11-15T05:30:45;5.03;;;3.90;;
49948;SDS011;35840;45.982;8.890;2022-11-15T05:33:31;7.30;;;4.40;;
49948;SDS011;35840;45.982;8.890;2022-11-15T05:36:21;6.50;;;4.57;;
49948;SDS011;35840;45.982;8.890;2022-11-15T05:39:23;7.78;;;4.97;;
49948;SDS011;35840;45.982;8.890;2022-11-15T05:42:11;7.95;;;5.25;;
49948;SDS011;35840;45.982;8.890;2022-11-15T05:44:58;11.88;;;7.22;;
49948;SDS011;35840;45.982;8.890;2022-11-15T05:47:47;24.80;;;7.85;;
49948;SDS011;35840;45.982;8.890;2022-11-15T05:50:34;24.27;;;10.70;;
49948;SDS011;35840;45.982;8.890;2022-11-15T05:53:23;22.58;;;11.52;;
49948;SDS011;35840;45.982;8.890;2022-11-15T05:56:10;28.15;;;12.52;;
49948;SDS011;35840;45.982;8.890;2022-11-15T05:58:56;22.95;;;11.77;;
49948;SDS011;35840;45.982;8.890;2022-11-15T06:01:44;20.33;;;9.32;;
49948;SDS011;35840;45.982;8.890;2022-11-15T06:04:30;15.02;;;7.63;;
49948;SDS011;35840;45.982;8.890;2022-11-15T06:07:15;13.27;;;7.70;;
49948;SDS011;35840;45.982;8.890;2022-11-15T06:10:00;11.95;;;6.43;;
49948;SDS011;35840;45.982;8.890;2022-11-15T06:12:46;9.15;;;5.65;;
49948;SDS011;35840;45.982;8.890;2022-11-15T06:15:34;9.82;;;5.05;;
49948;SDS011;35840;45.982;8.890;2022-11-15T06:18:19;9.80;;;5.68;;
49948;SDS011;35840;45.982;8.890;2022-11-15T06:21:04;7.47;;;5.23;;
49948;SDS011;35840;45.982;8.890;2022-11-15T06:23:50;9.07;;;5.40;;
49948;SDS011;35840;45.982;8.890;2022-11-15T06:26:35;8.55;;;4.97;;
49948;SDS011;35840;45.982;8.890;2022-11-15T06:29:20;7.78;;;4.38;;
49948;SDS011;35840;45.982;8.890;2022-11-15T06:32:06;6.73;;;4.57;;
49948;SDS011;35840;45.982;8.890;2022-11-15T06:34:51;7.85;;;4.97;;
49948;SDS011;35840;45.982;8.890;2022-11-15T06:37:36;7.50;;;5.13;;
49948;SDS011;35840;45.982;8.890;2022-11-15T06:40:22;8.77;;;5.47;;
49948;SDS011;35840;45.982;8.890;2022-11-15T06:43:07;9.07;;;6.20;;
49948;SDS011;35840;45.982;8.890;2022-11-15T06:45:52;17.40;;;11.90;;
49948;SDS011;35840;45.982;8.890;2022-11-15T06:48:38;16.17;;;12.05;;
49948;SDS011;35840;45.982;8.890;2022-11-15T06:51:23;15.35;;;11.55;;
49948;SDS011;35840;45.982;8.890;2022-11-15T06:54:08;15.90;;;10.63;;
49948;SDS011;35840;45.982;8.890;2022-11-15T06:56:53;13.40;;;9.23;;
49948;SDS011;35840;45.982;8.890;2022-11-15T06:59:39;18.17;;;10.10;;
49948;SDS011;35840;45.982;8.890;2022-11-15T07:02:25;15.80;;;9.98;;
49948;SDS011;35840;45.982;8.890;2022-11-15T07:05:10;10.90;;;7.00;;
49948;SDS011;35840;45.982;8.890;2022-11-15T07:07:57;8.80;;;4.40;;
49948;SDS011;35840;45.982;8.890;2022-11-15T07:10:43;5.82;;;3.85;;
49948;SDS011;35840;45.982;8.890;2022-11-15T07:13:29;6.25;;;4.05;;
49948;SDS011;35840;45.982;8.890;2022-11-15T07:16:18;7.15;;;3.85;;
49948;SDS011;35840;45.982;8.890;2022-11-15T07:19:04;4.32;;;3.00;;
49948;SDS011;35840;45.982;8.890;2022-11-15T07:21:49;4.13;;;2.97;;
49948;SDS011;35840;45.982;8.890;2022-11-15T07:24:34;4.90;;;3.60;;
49948;SDS011;35840;45.982;8.890;2022-11-15T07:27:20;4.63;;;3.53;;
49948;SDS011;35840;45.982;8.890;2022-11-15T07:30:05;4.43;;;3.47;;
49948;SDS011;35840;45.982;8.890;2022-11-15T07:32:55;4.32;;;3.75;;
49948;SDS011;35840;45.982;8.890;2022-11-15T07:35:43;5.32;;;3.80;;
49948;SDS011;35840;45.982;8.890;2022-11-15T07:38:32;5.53;;;4.40;;
49948;SDS011;35840;45.982;8.890;2022-11-15T07:41:26;5.88;;;4.47;;
49948;SDS011;35840;45.982;8.890;2022-11-15T07:44:11;6.97;;;5.40;;
49948;SDS011;35840;45.982;8.890;2022-11-15T07:46:56;7.20;;;5.00;;
49948;SDS011;35840;45.982;8.890;2022-11-15T07:49:42;7.70;;;5.40;;
49948;SDS011;35840;45.982;8.890;2022-11-15T07:52:27;10.10;;;5.17;;
49948;SDS011;35840;45.982;8.890;2022-11-15T07:55:13;10.80;;;6.13;;
49948;SDS011;35840;45.982;8.890;2022-11-15T07:58:02;8.47;;;4.73;;
49948;SDS011;35840;45.982;8.890;2022-11-15T08:00:51;9.13;;;4.50;;
49948;SDS011;35840;45.982;8.890;2022-11-15T08:03:36;9.25;;;5.45;;
49948;SDS011;35840;45.982;8.890;2022-11-15T08:06:22;8.18;;;4.95;;
49948;SDS011;35840;45.982;8.890;2022-11-15T08:09:07;10.30;;;5.30;;
49948;SDS011;35840;45.982;8.890;2022-11-15T08:11:52;7.03;;;4.57;;
49948;SDS011;35840;45.982;8.890;2022-11-15T08:14:38;8.43;;;4.97;;
49948;SDS011;35840;45.982;8.890;2022-11-15T08:17:23;5.93;;;4.28;;
49948;SDS011;35840;45.982;8.890;2022-11-15T08:22:55;11.50;;;4.07;;
49948;SDS011;35840;45.982;8.890;2022-11-15T08:25:41;9.48;;;4.97;;
49948;SDS011;35840;45.982;8.890;2022-11-15T08:28:27;6.32;;;4.80;;
49948;SDS011;35840;45.982;8.890;2022-11-15T08:31:16;9.88;;;4.90;;
49948;SDS011;35840;45.982;8.890;2022-11-15T08:34:03;7.80;;;5.20;;
49948;SDS011;35840;45.982;8.890;2022-11-15T08:36:48;9.05;;;5.43;;
49948;SDS011;35840;45.982;8.890;2022-11-15T08:39:33;9.37;;;4.73;;
49948;SDS011;35840;45.982;8.890;2022-11-15T08:42:19;8.45;;;5.18;;
49948;SDS011;35840;45.982;8.890;2022-11-15T08:45:04;7.25;;;4.45;;
49948;SDS011;35840;45.982;8.890;2022-11-15T08:47:49;7.22;;;4.65;;
49948;SDS011;35840;45.982;8.890;2022-11-15T08:50:38;8.18;;;4.93;;
49948;SDS011;35840;45.982;8.890;2022-11-15T08:53:23;8.63;;;4.77;;
49948;SDS011;35840;45.982;8.890;2022-11-15T08:56:09;9.20;;;4.97;;
49948;SDS011;35840;45.982;8.890;2022-11-15T08:58:56;8.80;;;4.97;;
49948;SDS011;35840;45.982;8.890;2022-11-15T09:01:41;11.75;;;4.93;;
49948;SDS011;35840;45.982;8.890;2022-11-15T09:04:26;7.80;;;4.28;;
49948;SDS011;35840;45.982;8.890;2022-11-15T09:07:12;7.72;;;4.40;;
49948;SDS011;35840;45.982;8.890;2022-11-15T09:09:58;11.50;;;5.18;;
49948;SDS011;35840;45.982;8.890;2022-11-15T09:12:43;8.85;;;5.07;;
49948;SDS011;35840;45.982;8.890;2022-11-15T09:15:29;7.57;;;4.55;;
49948;SDS011;35840;45.982;8.890;2022-11-15T09:18:14;7.70;;;3.77;;
49948;SDS011;35840;45.982;8.890;2022-11-15T09:20:59;9.53;;;5.53;;
49948;SDS011;35840;45.982;8.890;2022-11-15T09:23:45;6.57;;;4.15;;
49948;SDS011;35840;45.982;8.890;2022-11-15T09:26:30;7.63;;;5.10;;
49948;SDS011;35840;45.982;8.890;2022-11-15T09:29:15;5.73;;;4.53;;
49948;SDS011;35840;45.982;8.890;2022-11-15T09:32:01;7.72;;;4.78;;
49948;SDS011;35840;45.982;8.890;2022-11-15T09:34:46;7.05;;;4.97;;
49948;SDS011;35840;45.982;8.890;2022-11-15T09:37:31;6.20;;;4.47;;
49948;SDS011;35840;45.982;8.890;2022-11-15T09:40:24;8.87;;;4.70;;
49948;SDS011;35840;45.982;8.890;2022-11-15T09:43:46;7.65;;;4.20;;
49948;SDS011;35840;45.982;8.890;2022-11-15T09:49:31;6.30;;;4.50;;
49948;SDS011;35840;45.982;8.890;2022-11-15T09:52:11;10.77;;;5.28;;
49948;SDS011;35840;45.982;8.890;2022-11-15T09:54:39;10.30;;;5.40;;
49948;SDS011;35840;45.982;8.890;2022-11-15T10:03:10;7.45;;;4.40;;
49948;SDS011;35840;45.982;8.890;2022-11-15T10:05:46;7.10;;;5.35;;
49948;SDS011;35840;45.982;8.890;2022-11-15T10:11:07;8.95;;;5.90;;
49948;SDS011;35840;45.982;8.890;2022-11-15T10:13:58;8.65;;;5.82;;
49948;SDS011;35840;45.982;8.890;2022-11-15T10:24:00;7.93;;;5.40;;
49948;SDS011;35840;45.982;8.890;2022-11-15T10:26:27;9.68;;;5.75;;
49948;SDS011;35840;45.982;8.890;2022-11-15T10:28:54;7.60;;;5.85;;
49948;SDS011;35840;45.982;8.890;2022-11-15T10:31:25;9.30;;;5.93;;
49948;SDS011;35840;45.982;8.890;2022-11-15T10:33:58;7.03;;;5.68;;
49948;SDS011;35840;45.982;8.890;2022-11-15T10:36:46;17.70;;;6.75;;
49948;SDS011;35840;45.982;8.890;2022-11-15T10:39:20;9.73;;;5.70;;
49948;SDS011;35840;45.982;8.890;2022-11-15T10:42:22;10.25;;;6.38;;
49948;SDS011;35840;45.982;8.890;2022-11-15T10:44:53;7.22;;;5.63;;
49948;SDS011;35840;45.982;8.890;2022-11-15T10:47:21;8.73;;;5.38;;
49948;SDS011;35840;45.982;8.890;2022-11-15T10:50:24;8.80;;;6.15;;
49948;SDS011;35840;45.982;8.890;2022-11-15T10:52:55;9.38;;;5.60;;
49948;SDS011;35840;45.982;8.890;2022-11-15T10:55:27;7.95;;;5.47;;
49948;SDS011;35840;45.982;8.890;2022-11-15T10:58:01;8.52;;;5.55;;
49948;SDS011;35840;45.982;8.890;2022-11-15T11:00:33;8.70;;;5.72;;
49948;SDS011;35840;45.982;8.890;2022-11-15T11:03:03;8.60;;;5.35;;
49948;SDS011;35840;45.982;8.890;2022-11-15T11:05:37;8.85;;;5.70;;
49948;SDS011;35840;45.982;8.890;2022-11-15T11:10:52;14.55;;;6.57;;
49948;SDS011;35840;45.982;8.890;2022-11-15T11:13:28;8.65;;;5.88;;
49948;SDS011;35840;45.982;8.890;2022-11-15T11:16:16;8.27;;;5.53;;
49948;SDS011;35840;45.982;8.890;2022-11-15T11:21:31;8.88;;;5.25;;
49948;SDS011;35840;45.982;8.890;2022-11-15T11:38:11;8.15;;;5.05;;
49948;SDS011;35840;45.982;8.890;2022-11-15T11:43:30;7.82;;;4.88;;
49948;SDS011;35840;45.982;8.890;2022-11-15T11:46:27;7.22;;;5.07;;
49948;SDS011;35840;45.982;8.890;2022-11-15T11:49:08;7.40;;;5.47;;
49948;SDS011;35840;45.982;8.890;2022-11-15T11:56:40;8.38;;;6.18;;
49948;SDS011;35840;45.982;8.890;2022-11-15T12:02:09;5.72;;;4.30;;
49948;SDS011;35840;45.982;8.890;2022-11-15T12:04:44;7.97;;;5.75;;
49948;SDS011;35840;45.982;8.890;2022-11-15T12:07:21;7.88;;;5.07;;
49948;SDS011;35840;45.982;8.890;2022-11-15T12:10:05;7.93;;;4.97;;
49948;SDS011;35840;45.982;8.890;2022-11-15T12:15:48;7.55;;;5.40;;
49948;SDS011;35840;45.982;8.890;2022-11-15T12:18:28;9.10;;;5.73;;
49948;SDS011;35840;45.982;8.890;2022-11-15T12:21:19;7.43;;;5.80;;
49948;SDS011;35840;45.982;8.890;2022-11-15T12:23:55;9.60;;;6.38;;
49948;SDS011;35840;45.982;8.890;2022-11-15T12:26:35;8.57;;;5.85;;
49948;SDS011;35840;45.982;8.890;2022-11-15T12:29:25;9.95;;;5.80;;
49948;SDS011;35840;45.982;8.890;2022-11-15T12:32:05;10.95;;;5.65;;
49948;SDS011;35840;45.982;8.890;2022-11-15T12:34:46;6.90;;;4.75;;
49948;SDS011;35840;45.982;8.890;2022-11-15T12:42:40;6.60;;;5.07;;
49948;SDS011;35840;45.982;8.890;2022-11-15T12:45:45;8.80;;;5.32;;
49948;SDS011;35840;45.982;8.890;2022-11-15T12:50:53;6.07;;;4.97;;
49948;SDS011;35840;45.982;8.890;2022-11-15T12:58:52;8.27;;;6.07;;
49948;SDS011;35840;45.982;8.890;2022-11-15T13:06:49;9.80;;;5.80;;
49948;SDS011;35840;45.982;8.890;2022-11-15T13:14:51;11.43;;;7.43;;
49948;SDS011;35840;45.982;8.890;2022-11-15T13:19:47;9.30;;;7.32;;
49948;SDS011;35840;45.982;8.890;2022-11-15T13:22:15;11.38;;;7.38;;
49948;SDS011;35840;45.982;8.890;2022-11-15T13:25:03;12.85;;;7.60;;
49948;SDS011;35840;45.982;8.890;2022-11-15T13:27:30;10.73;;;7.57;;
49948;SDS011;35840;45.982;8.890;2022-11-15T13:29:57;13.98;;;8.00;;
49948;SDS011;35840;45.982;8.890;2022-11-15T13:32:40;9.88;;;7.80;;
49948;SDS011;35840;45.982;8.890;2022-11-15T13:35:06;10.10;;;7.30;;
49948;SDS011;35840;45.982;8.890;2022-11-15T13:37:33;11.50;;;7.05;;
49948;SDS011;35840;45.982;8.890;2022-11-15T13:42:46;15.20;;;8.27;;
49948;SDS011;35840;45.982;8.890;2022-11-15T13:45:14;10.45;;;6.47;;
49948;SDS011;35840;45.982;8.890;2022-11-15T13:47:43;10.32;;;6.57;;
49948;SDS011;35840;45.982;8.890;2022-11-15T13:50:10;7.78;;;5.95;;
49948;SDS011;35840;45.982;8.890;2022-11-15T13:52:39;12.73;;;6.95;;
49948;SDS011;35840;45.982;8.890;2022-11-15T13:55:10;10.00;;;6.55;;
49948;SDS011;35840;45.982;8.890;2022-11-15T13:57:45;9.45;;;6.93;;
49948;SDS011;35840;45.982;8.890;2022-11-15T14:00:24;9.50;;;7.18;;
49948;SDS011;35840;45.982;8.890;2022-11-15T14:03:24;9.25;;;6.88;;
49948;SDS011;35840;45.982;8.890;2022-11-15T14:08:30;8.52;;;6.00;;
49948;SDS011;35840;45.982;8.890;2022-11-15T14:11:16;9.40;;;6.50;;
49948;SDS011;35840;45.982;8.890;2022-11-15T14:16:46;9.88;;;7.53;;
49948;SDS011;35840;45.982;8.890;2022-11-15T14:24:50;11.70;;;7.13;;
49948;SDS011;35840;45.982;8.890;2022-11-15T14:27:39;11.25;;;7.50;;
49948;SDS011;35840;45.982;8.890;2022-11-15T14:30:12;11.75;;;6.68;;
49948;SDS011;35840;45.982;8.890;2022-11-15T14:32:45;8.77;;;6.88;;
49948;SDS011;35840;45.982;8.890;2022-11-15T14:35:15;11.73;;;7.47;;
49948;SDS011;35840;45.982;8.890;2022-11-15T14:37:45;10.88;;;7.68;;
49948;SDS011;35840;45.982;8.890;2022-11-15T14:40:15;11.38;;;7.53;;
49948;SDS011;35840;45.982;8.890;2022-11-15T14:42:45;8.98;;;6.90;;
49948;SDS011;35840;45.982;8.890;2022-11-15T14:45:15;13.95;;;7.07;;
49948;SDS011;35840;45.982;8.890;2022-11-15T14:47:45;11.02;;;7.32;;
49948;SDS011;35840;45.982;8.890;2022-11-15T14:50:12;11.02;;;6.25;;
49948;SDS011;35840;45.982;8.890;2022-11-15T14:52:40;12.18;;;7.65;;
49948;SDS011;35840;45.982;8.890;2022-11-15T14:57:49;8.88;;;6.65;;
49948;SDS011;35840;45.982;8.890;2022-11-15T15:00:16;8.55;;;6.25;;
49948;SDS011;35840;45.982;8.890;2022-11-15T15:02:44;9.55;;;7.00;;
49948;SDS011;35840;45.982;8.890;2022-11-15T15:07:52;8.27;;;6.53;;
49948;SDS011;35840;45.982;8.890;2022-11-15T15:10:19;10.82;;;6.55;;
49948;SDS011;35840;45.982;8.890;2022-11-15T15:13:10;9.85;;;6.90;;
49948;SDS011;35840;45.982;8.890;2022-11-15T15:15:50;11.45;;;7.40;;
49948;SDS011;35840;45.982;8.890;2022-11-15T15:18:18;9.95;;;6.28;;
49948;SDS011;35840;45.982;8.890;2022-11-15T15:20:57;10.23;;;7.00;;
49948;SDS011;35840;45.982;8.890;2022-11-15T15:23:33;11.13;;;7.78;;
49948;SDS011;35840;45.982;8.890;2022-11-15T15:26:01;9.25;;;6.95;;
49948;SDS011;35840;45.982;8.890;2022-11-15T15:28:29;9.68;;;7.25;;
49948;SDS011;35840;45.982;8.890;2022-11-15T15:31:00;13.35;;;9.70;;
49948;SDS011;35840;45.982;8.890;2022-11-15T15:33:27;10.10;;;7.30;;
49948;SDS011;35840;45.982;8.890;2022-11-15T15:35:54;8.35;;;6.72;;
49948;SDS011;35840;45.982;8.890;2022-11-15T15:38:20;8.50;;;6.07;;
49948;SDS011;35840;45.982;8.890;2022-11-15T15:40:47;8.68;;;5.35;;
49948;SDS011;35840;45.982;8.890;2022-11-15T15:43:17;7.93;;;5.80;;
49948;SDS011;35840;45.982;8.890;2022-11-15T15:45:43;10.55;;;5.40;;
49948;SDS011;35840;45.982;8.890;2022-11-15T15:48:12;7.93;;;5.30;;
49948;SDS011;35840;45.982;8.890;2022-11-15T15:50:43;8.38;;;5.82;;
49948;SDS011;35840;45.982;8.890;2022-11-15T15:53:10;8.80;;;6.45;;
49948;SDS011;35840;45.982;8.890;2022-11-15T15:55:38;8.98;;;6.35;;
49948;SDS011;35840;45.982;8.890;2022-11-15T15:58:05;9.88;;;6.70;;
49948;SDS011;35840;45.982;8.890;2022-11-15T16:00:32;10.88;;;7.07;;
49948;SDS011;35840;45.982;8.890;2022-11-15T16:02:59;14.98;;;8.38;;
49948;SDS011;35840;45.982;8.890;2022-11-15T16:05:26;12.88;;;8.68;;
49948;SDS011;35840;45.982;8.890;2022-11-15T16:07:53;12.27;;;7.93;;
49948;SDS011;35840;45.982;8.890;2022-11-15T16:12:46;27.02;;;16.45;;
49948;SDS011;35840;45.982;8.890;2022-11-15T16:15:13;23.42;;;13.52;;
49948;SDS011;35840;45.982;8.890;2022-11-15T16:17:43;20.08;;;11.60;;
49948;SDS011;35840;45.982;8.890;2022-11-15T16:20:55;12.88;;;8.60;;
49948;SDS011;35840;45.982;8.890;2022-11-15T16:23:16;12.65;;;8.30;;
49948;SDS011;35840;45.982;8.890;2022-11-15T16:25:51;11.20;;;7.85;;
49948;SDS011;35840;45.982;8.890;2022-11-15T16:28:22;12.43;;;7.68;;
49948;SDS011;35840;45.982;8.890;2022-11-15T16:31:04;13.73;;;8.70;;
49948;SDS011;35840;45.982;8.890;2022-11-15T16:33:35;13.18;;;8.90;;
49948;SDS011;35840;45.982;8.890;2022-11-15T16:36:03;12.65;;;8.98;;
49948;SDS011;35840;45.982;8.890;2022-11-15T16:38:31;13.60;;;9.80;;
49948;SDS011;35840;45.982;8.890;2022-11-15T16:40:59;12.38;;;8.52;;
49948;SDS011;35840;45.982;8.890;2022-11-15T16:43:25;13.35;;;8.73;;
49948;SDS011;35840;45.982;8.890;2022-11-15T16:45:52;10.70;;;8.15;;
49948;SDS011;35840;45.982;8.890;2022-11-15T16:48:24;11.70;;;8.98;;
49948;SDS011;35840;45.982;8.890;2022-11-15T16:50:55;12.15;;;7.97;;
49948;SDS011;35840;45.982;8.890;2022-11-15T16:53:24;9.88;;;6.80;;
49948;SDS011;35840;45.982;8.890;2022-11-15T16:55:51;12.50;;;7.60;;
49948;SDS011;35840;45.982;8.890;2022-11-15T16:58:19;9.45;;;7.40;;
49948;SDS011;35840;45.982;8.890;2022-11-15T17:00:49;8.73;;;6.90;;
49948;SDS011;35840;45.982;8.890;2022-11-15T17:03:17;11.57;;;7.57;;
49948;SDS011;35840;45.982;8.890;2022-11-15T17:05:44;10.30;;;7.25;;
49948;SDS011;35840;45.982;8.890;2022-11-15T17:08:10;11.05;;;7.65;;
49948;SDS011;35840;45.982;8.890;2022-11-15T17:10:38;10.38;;;7.30;;
49948;SDS011;35840;45.982;8.890;2022-11-15T17:13:11;11.00;;;7.53;;
49948;SDS011;35840;45.982;8.890;2022-11-15T17:15:39;8.50;;;6.63;;
49948;SDS011;35840;45.982;8.890;2022-11-15T17:18:06;11.55;;;7.70;;
49948;SDS011;35840;45.982;8.890;2022-11-15T17:20:36;12.05;;;8.35;;
49948;SDS011;35840;45.982;8.890;2022-11-15T17:23:02;13.00;;;9.23;;
49948;SDS011;35840;45.982;8.890;2022-11-15T17:25:29;21.73;;;12.82;;
49948;SDS011;35840;45.982;8.890;2022-11-15T17:27:56;24.52;;;16.52;;
49948;SDS011;35840;45.982;8.890;2022-11-15T17:30:22;20.48;;;13.68;;
49948;SDS011;35840;45.982;8.890;2022-11-15T17:32:49;14.82;;;9.27;;
49948;SDS011;35840;45.982;8.890;2022-11-15T17:35:16;11.98;;;8.02;;
49948;SDS011;35840;45.982;8.890;2022-11-15T17:37:42;11.52;;;8.63;;
49948;SDS011;35840;45.982;8.890;2022-11-15T17:40:09;12.88;;;9.13;;
49948;SDS011;35840;45.982;8.890;2022-11-15T17:42:39;14.15;;;8.63;;
49948;SDS011;35840;45.982;8.890;2022-11-15T17:45:06;14.15;;;9.40;;
49948;SDS011;35840;45.982;8.890;2022-11-15T17:47:35;14.07;;;9.57;;
49948;SDS011;35840;45.982;8.890;2022-11-15T17:50:03;11.07;;;8.10;;
49948;SDS011;35840;45.982;8.890;2022-11-15T17:52:30;14.10;;;9.98;;
49948;SDS011;35840;45.982;8.890;2022-11-15T17:54:56;10.30;;;8.07;;
49948;SDS011;35840;45.982;8.890;2022-11-15T17:57:23;17.50;;;12.15;;
49948;SDS011;35840;45.982;8.890;2022-11-15T17:59:50;20.77;;;14.57;;
49948;SDS011;35840;45.982;8.890;2022-11-15T18:02:16;12.00;;;9.60;;
49948;SDS011;35840;45.982;8.890;2022-11-15T18:04:43;19.98;;;12.80;;
49948;SDS011;35840;45.982;8.890;2022-11-15T18:07:10;16.60;;;11.18;;
49948;SDS011;35840;45.982;8.890;2022-11-15T18:09:39;19.95;;;13.10;;
49948;SDS011;35840;45.982;8.890;2022-11-15T18:12:09;11.00;;;7.88;;
49948;SDS011;35840;45.982;8.890;2022-11-15T18:14:36;11.90;;;8.02;;
49948;SDS011;35840;45.982;8.890;2022-11-15T18:17:03;10.48;;;7.75;;
49948;SDS011;35840;45.982;8.890;2022-11-15T18:19:34;9.20;;;7.07;;
49948;SDS011;35840;45.982;8.890;2022-11-15T18:22:02;13.60;;;8.48;;
49948;SDS011;35840;45.982;8.890;2022-11-15T18:24:31;14.05;;;9.27;;
49948;SDS011;35840;45.982;8.890;2022-11-15T18:27:00;14.70;;;10.38;;